createdAt,value
2018-02-04T00:02:25.776Z,5.57
2018-02-04T00:04:53.110Z,5.62
2018-02-04T00:07:19.718Z,5.75
2018-02-04T00:09:46.294Z,5.30
2018-02-04T00:12:12.924Z,5.43
2018-02-04T00:14:39.609Z,8.05
2018-02-04T00:17:07.177Z,6.10
2018-02-04T00:19:33.832Z,9.65
2018-02-04T00:22:00.475Z,6.78
2018-02-04T00:24:27.121Z,7.30
2018-02-04T00:26:54.511Z,7.43
2018-02-04T00:29:21.117Z,8.52
2018-02-04T00:31:48.519Z,7.57
2018-02-04T00:34:15.129Z,7.80
2018-02-04T00:36:41.750Z,8.70
2018-02-04T00:39:08.364Z,7.93
2018-02-04T00:41:34.991Z,7.72
2018-02-04T00:44:02.511Z,9.48
2018-02-04T00:46:29.853Z,8.65
2018-02-04T00:48:56.457Z,8.85
2018-02-04T00:51:23.032Z,7.82
2018-02-04T00:53:49.621Z,7.62
2018-02-04T00:56:16.234Z,8.45
2018-02-04T00:58:42.830Z,8.32
2018-02-04T01:01:10.173Z,8.52
2018-02-04T01:03:37.505Z,10.00
2018-02-04T01:06:04.186Z,7.87
2018-02-04T01:08:30.785Z,8.13
2018-02-04T01:10:57.451Z,8.40
2018-02-04T01:13:24.109Z,10.02
2018-02-04T01:15:50.678Z,11.25
2018-02-04T01:18:17.278Z,8.57
2018-02-04T01:20:43.898Z,9.43
2018-02-04T01:23:10.457Z,11.40
2018-02-04T01:25:37.052Z,10.68
2018-02-04T01:28:04.443Z,11.18
2018-02-04T01:30:31.172Z,9.00
2018-02-04T01:32:57.724Z,11.70
2018-02-04T01:35:24.301Z,9.27
2018-02-04T01:37:50.909Z,8.18
2018-02-04T01:40:17.518Z,8.27
2018-02-04T01:42:44.166Z,10.18
2018-02-04T01:45:10.729Z,8.18
2018-02-04T01:47:37.280Z,9.57
2018-02-04T01:50:03.918Z,9.70
2018-02-04T01:52:30.481Z,7.12
2018-02-04T01:54:57.094Z,8.88
2018-02-04T01:57:23.723Z,9.00
2018-02-04T01:59:50.298Z,7.57
2018-02-04T02:02:16.892Z,6.70
2018-02-04T02:04:43.469Z,6.78
2018-02-04T02:07:10.037Z,8.90
2018-02-04T02:09:36.651Z,8.15
2018-02-04T02:12:03.293Z,6.95
2018-02-04T02:14:30.631Z,7.65
2018-02-04T02:16:57.177Z,8.85
2018-02-04T02:19:24.550Z,6.30
2018-02-04T02:21:51.154Z,9.95
2018-02-04T02:24:17.732Z,6.47
2018-02-04T02:26:44.365Z,7.22
2018-02-04T02:29:11.714Z,6.40
2018-02-04T02:31:38.317Z,8.32
2018-02-04T02:34:04.903Z,6.43
2018-02-04T02:36:31.488Z,6.25
2018-02-04T02:38:58.089Z,6.35
2018-02-04T02:41:24.653Z,7.47
2018-02-04T02:43:52.000Z,6.40
2018-02-04T02:46:18.601Z,6.82
2018-02-04T02:48:45.177Z,9.00
2018-02-04T02:51:11.775Z,8.05
2018-02-04T02:53:38.423Z,8.68
2018-02-04T02:56:05.037Z,7.50
2018-02-04T02:58:31.591Z,8.23
2018-02-04T03:00:58.157Z,8.70
2018-02-04T03:03:24.755Z,7.93
2018-02-04T03:05:51.341Z,7.80
2018-02-04T03:08:17.985Z,9.05
2018-02-04T03:10:44.542Z,8.43
2018-02-04T03:13:11.200Z,8.13
2018-02-04T03:15:37.836Z,9.27
2018-02-04T03:18:04.430Z,9.20
2018-02-04T03:20:31.014Z,9.93
2018-02-04T03:22:57.582Z,10.23
2018-02-04T03:25:24.264Z,9.18
2018-02-04T03:27:50.851Z,8.35
2018-02-04T03:30:17.451Z,9.77
2018-02-04T03:32:44.046Z,9.40
2018-02-04T03:35:11.385Z,9.95
2018-02-04T03:37:37.919Z,8.95
2018-02-04T03:40:04.553Z,9.93
2018-02-04T03:42:31.173Z,10.73
2018-02-04T03:44:57.764Z,8.70
2018-02-04T03:47:24.324Z,8.27
2018-02-04T03:49:50.889Z,8.23
2018-02-04T03:52:17.499Z,8.13
2018-02-04T03:54:44.126Z,9.80
2018-02-04T03:57:10.709Z,7.35
2018-02-04T03:59:38.102Z,11.90
2018-02-04T04:02:04.685Z,8.18
2018-02-04T04:04:31.295Z,9.32
2018-02-04T04:06:57.873Z,7.80
2018-02-04T04:09:24.452Z,6.35
2018-02-04T04:11:51.114Z,7.37
2018-02-04T04:14:17.717Z,8.75
2018-02-04T04:16:44.280Z,9.40
2018-02-04T04:19:10.910Z,9.18
2018-02-04T04:21:38.282Z,8.20
2018-02-04T04:24:04.869Z,7.62
2018-02-04T04:26:31.546Z,9.23
2018-02-04T04:28:58.158Z,7.57
2018-02-04T04:31:25.491Z,7.37
2018-02-04T04:33:52.056Z,7.32
2018-02-04T04:36:18.641Z,8.75
2018-02-04T04:38:45.237Z,7.57
2018-02-04T04:41:11.866Z,7.75
2018-02-04T04:43:38.444Z,8.32
2018-02-04T04:46:08.518Z,8.63
2018-02-04T04:48:37.000Z,8.32
2018-02-04T04:51:04.330Z,10.20
2018-02-04T04:53:30.902Z,10.30
2018-02-04T04:55:58.227Z,10.02
2018-02-04T04:58:25.550Z,8.27
2018-02-04T05:00:52.093Z,10.75
2018-02-04T05:03:18.733Z,7.10
2018-02-04T05:05:45.344Z,7.65
2018-02-04T05:08:11.937Z,7.78
2018-02-04T05:10:38.530Z,7.30
2018-02-04T05:13:05.122Z,9.35
2018-02-04T05:15:32.463Z,10.27
2018-02-04T05:17:59.278Z,7.60
2018-02-04T05:20:25.872Z,8.40
2018-02-04T05:22:52.434Z,7.62
2018-02-04T05:25:19.041Z,9.50
2018-02-04T05:27:45.662Z,7.18
2018-02-04T05:30:12.270Z,7.53
2018-02-04T05:32:38.850Z,8.05
2018-02-04T05:35:05.432Z,9.30
2018-02-04T05:37:32.047Z,8.70
2018-02-04T05:39:58.665Z,7.62
2018-02-04T05:42:25.275Z,8.73
2018-02-04T05:44:51.896Z,6.85
2018-02-04T05:47:18.547Z,7.40
2018-02-04T05:49:46.099Z,7.97
2018-02-04T05:52:12.730Z,7.70
2018-02-04T05:54:39.321Z,6.40
2018-02-04T05:57:05.919Z,8.15
2018-02-04T05:59:32.510Z,6.53
2018-02-04T06:01:59.118Z,8.82
2018-02-04T06:04:25.712Z,9.93
2018-02-04T06:06:53.122Z,9.85
2018-02-04T06:09:19.689Z,9.82
2018-02-04T06:11:46.280Z,20.12
2018-02-04T06:14:12.910Z,33.30
2018-02-04T06:16:39.453Z,19.17
2018-02-04T06:19:06.396Z,9.82
2018-02-04T06:21:32.977Z,9.02
2018-02-04T06:24:00.522Z,10.75
2018-02-04T06:26:27.362Z,10.10
2018-02-04T06:28:53.950Z,7.85
2018-02-04T06:31:20.542Z,8.95
2018-02-04T06:33:47.173Z,7.45
2018-02-04T06:36:13.793Z,8.10
2018-02-04T06:38:40.405Z,7.43
2018-02-04T06:41:07.395Z,9.02
2018-02-04T06:43:33.954Z,8.27
2018-02-04T06:46:00.510Z,11.15
2018-02-04T06:48:27.187Z,11.23
2018-02-04T06:50:53.754Z,32.88
2018-02-04T06:53:20.406Z,69.37
2018-02-04T06:55:46.994Z,53.50
2018-02-04T06:58:14.427Z,40.63
2018-02-04T07:00:41.055Z,35.90
2018-02-04T07:03:08.401Z,13.40
2018-02-04T07:05:34.975Z,22.60
2018-02-04T07:08:01.614Z,9.18
2018-02-04T07:10:28.194Z,9.90
2018-02-04T07:12:55.522Z,8.55
2018-02-04T07:15:22.136Z,7.85
2018-02-04T07:17:48.714Z,9.82
2018-02-04T07:20:15.330Z,8.38
2018-02-04T07:22:42.690Z,8.13
2018-02-04T07:25:09.254Z,7.53
2018-02-04T07:27:35.838Z,9.98
2018-02-04T07:30:02.431Z,9.80
2018-02-04T07:32:29.009Z,10.88
2018-02-04T07:34:55.582Z,10.00
2018-02-04T07:37:22.134Z,10.88
2018-02-04T07:39:48.682Z,8.30
2018-02-04T07:42:15.268Z,9.00
2018-02-04T07:44:41.883Z,9.02
2018-02-04T07:47:08.604Z,8.13
2018-02-04T07:49:36.062Z,10.60
2018-02-04T07:52:02.798Z,13.98
2018-02-04T07:54:30.106Z,16.95
2018-02-04T07:56:56.691Z,19.48
2018-02-04T07:59:23.356Z,22.30
2018-02-04T08:01:49.918Z,19.77
2018-02-04T08:04:16.543Z,13.90
2018-02-04T08:06:43.175Z,12.75
2018-02-04T08:09:09.742Z,23.30
2018-02-04T08:11:36.451Z,16.27
2018-02-04T08:14:03.021Z,11.90
2018-02-04T08:16:29.694Z,8.80
2018-02-04T08:18:56.306Z,9.43
2018-02-04T08:21:23.701Z,9.27
2018-02-04T08:23:50.337Z,10.20
2018-02-04T08:26:16.916Z,11.35
2018-02-04T08:28:43.514Z,10.35
2018-02-04T08:31:10.125Z,9.48
2018-02-04T08:33:36.718Z,7.53
2018-02-04T08:36:03.354Z,7.62
2018-02-04T08:38:29.944Z,9.02
2018-02-04T08:40:57.270Z,23.90
2018-02-04T08:43:23.887Z,52.62
2018-02-04T08:45:50.546Z,37.83
2018-02-04T08:48:17.336Z,29.98
2018-02-04T08:50:44.018Z,22.62
2018-02-04T08:53:10.631Z,19.35
2018-02-04T08:55:37.281Z,16.60
2018-02-04T08:58:03.895Z,12.50
2018-02-04T09:00:30.587Z,13.45
2018-02-04T09:02:57.901Z,11.65
2018-02-04T09:05:24.486Z,12.55
2018-02-04T09:07:51.960Z,9.48
2018-02-04T09:10:18.601Z,10.20
2018-02-04T09:12:45.214Z,8.55
2018-02-04T09:15:12.591Z,9.45
2018-02-04T09:17:39.264Z,8.15
2018-02-04T09:20:05.925Z,7.55
2018-02-04T09:22:33.358Z,8.35
2018-02-04T09:24:59.967Z,7.07
2018-02-04T09:27:26.578Z,7.10
2018-02-04T09:29:53.893Z,6.65
2018-02-04T09:32:20.564Z,5.80
2018-02-04T09:34:47.153Z,5.85
2018-02-04T09:37:13.743Z,6.78
2018-02-04T09:39:41.095Z,6.60
2018-02-04T09:42:09.234Z,5.85
2018-02-04T09:44:35.843Z,4.40
2018-02-04T09:47:02.454Z,4.40
2018-02-04T09:49:29.054Z,4.87
2018-02-04T09:51:55.719Z,5.50
2018-02-04T09:54:23.063Z,5.07
2018-02-04T09:56:50.433Z,4.72
2018-02-04T09:59:17.749Z,3.92
2018-02-04T10:01:44.369Z,4.55
2018-02-04T10:04:10.969Z,4.30
2018-02-04T10:06:37.715Z,2.80
2018-02-04T10:09:04.365Z,2.70
2018-02-04T10:11:30.986Z,4.97
2018-02-04T10:13:58.615Z,3.53
2018-02-04T10:16:26.026Z,2.80
2018-02-04T10:18:52.960Z,2.60
2018-02-04T10:21:20.381Z,3.12
2018-02-04T10:23:47.054Z,4.30
2018-02-04T10:26:13.661Z,4.03
2018-02-04T10:28:40.450Z,3.50
2018-02-04T10:31:07.060Z,3.70
2018-02-04T10:33:33.770Z,4.93
2018-02-04T10:36:00.330Z,5.10
2018-02-04T10:38:27.010Z,3.40
2018-02-04T10:40:53.629Z,3.37
2018-02-04T10:43:20.291Z,2.40
2018-02-04T10:45:46.863Z,2.05
2018-02-04T10:48:13.482Z,2.58
2018-02-04T10:50:46.964Z,3.25
2018-02-04T10:53:13.573Z,4.35
2018-02-04T10:55:40.359Z,2.58
2018-02-04T10:58:06.935Z,2.95
2018-02-04T11:00:33.602Z,3.67
2018-02-04T11:03:00.206Z,3.50
2018-02-04T11:05:26.832Z,3.85
2018-02-04T11:07:53.472Z,2.80
2018-02-04T11:10:20.077Z,3.10
2018-02-04T11:12:46.718Z,4.30
2018-02-04T11:15:14.046Z,4.18
2018-02-04T11:17:40.661Z,4.25
2018-02-04T11:20:07.336Z,4.85
2018-02-04T11:22:33.979Z,3.65
2018-02-04T11:25:01.308Z,3.97
2018-02-04T11:27:28.004Z,6.90
2018-02-04T11:29:54.789Z,5.07
2018-02-04T11:32:24.412Z,3.12
2018-02-04T11:34:51.783Z,3.20
2018-02-04T11:37:18.390Z,2.47
2018-02-04T11:39:45.123Z,3.53
2018-02-04T11:42:11.710Z,3.28
2018-02-04T11:44:39.334Z,3.45
2018-02-04T11:47:06.135Z,2.67
2018-02-04T11:49:32.957Z,2.62
2018-02-04T11:52:00.287Z,2.53
2018-02-04T11:54:26.913Z,3.67
2018-02-04T11:56:53.650Z,3.42
2018-02-04T11:59:21.038Z,3.83
2018-02-04T12:01:48.411Z,4.30
2018-02-04T12:04:15.122Z,4.30
2018-02-04T12:06:41.781Z,8.20
2018-02-04T12:09:09.136Z,4.93
2018-02-04T12:11:36.508Z,4.47
2018-02-04T12:14:03.346Z,17.42
2018-02-04T12:16:29.953Z,24.02
2018-02-04T12:18:56.528Z,5.30
2018-02-04T12:21:23.262Z,4.22
2018-02-04T12:23:49.900Z,3.12
2018-02-04T12:26:16.461Z,3.83
2018-02-04T12:28:43.178Z,5.47
2018-02-04T12:31:09.741Z,7.37
2018-02-04T12:33:36.424Z,5.20
2018-02-04T12:36:03.115Z,4.55
2018-02-04T12:38:30.624Z,2.90
2018-02-04T12:40:57.979Z,2.62
2018-02-04T12:43:24.601Z,5.05
2018-02-04T12:45:51.250Z,5.43
2018-02-04T12:48:17.917Z,10.48
2018-02-04T12:50:44.552Z,25.73
2018-02-04T12:53:11.938Z,34.13
2018-02-04T12:55:38.554Z,6.78
2018-02-04T12:58:05.212Z,3.65
2018-02-04T13:00:31.844Z,3.20
2018-02-04T13:02:59.457Z,3.67
2018-02-04T13:05:26.103Z,3.45
2018-02-04T13:07:52.705Z,3.70
2018-02-04T13:10:19.353Z,5.70
2018-02-04T13:12:46.006Z,9.88
2018-02-04T13:15:12.638Z,3.90
2018-02-04T13:17:40.027Z,6.43
2018-02-04T13:20:06.633Z,4.97
2018-02-04T13:22:33.287Z,7.50
2018-02-04T13:24:59.926Z,4.47
2018-02-04T13:27:26.551Z,4.72
2018-02-04T13:29:53.167Z,6.07
2018-02-04T13:32:19.753Z,10.43
2018-02-04T13:34:46.418Z,21.12
2018-02-04T13:37:13.043Z,15.32
2018-02-04T13:39:39.657Z,8.20
2018-02-04T13:42:06.249Z,5.60
2018-02-04T13:44:32.927Z,4.30
2018-02-04T13:46:59.627Z,4.95
2018-02-04T13:49:26.255Z,4.68
2018-02-04T13:51:53.795Z,5.10
2018-02-04T13:54:20.453Z,4.35
2018-02-04T13:56:47.116Z,5.68
2018-02-04T13:59:13.830Z,4.50
2018-02-04T14:01:40.434Z,3.75
2018-02-04T14:04:07.170Z,4.20
2018-02-04T14:06:33.771Z,4.22
2018-02-04T14:09:01.113Z,3.25
2018-02-04T14:11:28.682Z,3.30
2018-02-04T14:13:56.116Z,3.60
2018-02-04T14:16:22.758Z,6.12
2018-02-04T14:18:49.433Z,4.20
2018-02-04T14:21:16.828Z,3.42
2018-02-04T14:23:43.443Z,3.30
2018-02-04T14:26:10.255Z,4.57
2018-02-04T14:28:36.940Z,5.45
2018-02-04T14:31:03.658Z,5.53
2018-02-04T14:33:30.511Z,4.90
2018-02-04T14:35:57.152Z,3.12
2018-02-04T14:38:23.758Z,4.05
2018-02-04T14:40:50.379Z,4.37
2018-02-04T14:43:17.826Z,3.20
2018-02-04T14:45:44.415Z,3.17
2018-02-04T14:48:12.862Z,3.65
2018-02-04T14:50:39.505Z,3.80
2018-02-04T14:53:06.130Z,4.18
2018-02-04T14:55:33.485Z,7.37
2018-02-04T14:58:00.125Z,5.10
2018-02-04T15:00:27.123Z,6.43
2018-02-04T15:02:53.733Z,10.25
2018-02-04T15:05:21.135Z,5.50
2018-02-04T15:07:47.782Z,3.90
2018-02-04T15:10:15.135Z,4.50
2018-02-04T15:12:42.506Z,5.07
2018-02-04T15:15:09.883Z,9.93
2018-02-04T15:17:36.547Z,9.35
2018-02-04T15:20:03.169Z,26.52
2018-02-04T15:22:29.855Z,9.95
2018-02-04T15:24:56.493Z,8.73
2018-02-04T15:27:23.134Z,12.60
2018-02-04T15:29:50.526Z,5.43
2018-02-04T15:32:17.158Z,6.85
2018-02-04T15:34:43.830Z,6.43
2018-02-04T15:37:10.491Z,4.25
2018-02-04T15:39:37.171Z,7.47
2018-02-04T15:42:04.070Z,8.82
2018-02-04T15:44:30.678Z,5.93
2018-02-04T15:46:57.289Z,7.45
2018-02-04T15:49:24.887Z,6.95
2018-02-04T15:51:51.533Z,4.43
2018-02-04T15:54:18.216Z,4.80
2018-02-04T15:56:45.580Z,9.65
2018-02-04T15:59:12.234Z,8.82
2018-02-04T16:01:38.942Z,8.30
2018-02-04T16:04:06.394Z,6.30
2018-02-04T16:06:33.724Z,6.72
2018-02-04T16:09:00.344Z,10.38
2018-02-04T16:11:27.068Z,8.25
2018-02-04T16:13:53.655Z,9.90
2018-02-04T16:16:20.403Z,8.30
2018-02-04T16:18:47.727Z,9.45
2018-02-04T16:21:14.453Z,9.27
2018-02-04T16:23:41.092Z,12.75
2018-02-04T16:26:07.869Z,10.00
2018-02-04T16:28:35.229Z,15.45
2018-02-04T16:31:02.612Z,5.85
2018-02-04T16:33:29.230Z,6.40
2018-02-04T16:35:55.838Z,7.35
2018-02-04T16:38:22.540Z,17.12
2018-02-04T16:40:49.137Z,6.85
2018-02-04T16:43:15.825Z,8.90
2018-02-04T16:45:42.446Z,10.10
2018-02-04T16:48:09.085Z,10.57
2018-02-04T16:50:35.915Z,10.95
2018-02-04T16:53:02.513Z,16.52
2018-02-04T16:55:29.256Z,10.93
2018-02-04T16:57:56.654Z,8.18
2018-02-04T17:00:23.375Z,14.50
2018-02-04T17:02:50.027Z,8.10
2018-02-04T17:05:16.674Z,7.40
2018-02-04T17:07:43.381Z,9.82
2018-02-04T17:10:10.024Z,8.57
2018-02-04T17:12:36.647Z,8.57
2018-02-04T17:15:04.075Z,8.68
2018-02-04T17:17:30.669Z,14.10
2018-02-04T17:19:58.406Z,11.73
2018-02-04T17:22:25.074Z,9.57
2018-02-04T17:24:51.937Z,8.45
2018-02-04T17:27:18.555Z,9.20
2018-02-04T17:29:45.205Z,9.02
2018-02-04T17:32:11.897Z,7.20
2018-02-04T17:34:38.607Z,11.77
2018-02-04T17:37:05.212Z,8.10
2018-02-04T17:39:31.864Z,8.43
2018-02-04T17:41:58.530Z,6.70
2018-02-04T17:44:25.173Z,7.30
2018-02-04T17:46:52.638Z,7.78
2018-02-04T17:49:20.052Z,8.77
2018-02-04T17:51:46.839Z,9.70
2018-02-04T17:54:13.586Z,11.70
2018-02-04T17:56:40.960Z,9.73
2018-02-04T17:59:07.780Z,11.90
2018-02-04T18:01:35.259Z,11.95
2018-02-04T18:04:01.883Z,11.70
2018-02-04T18:06:28.562Z,10.05
2018-02-04T18:08:55.186Z,10.60
2018-02-04T18:11:22.079Z,12.88
2018-02-04T18:13:48.682Z,12.60
2018-02-04T18:16:15.286Z,13.88
2018-02-04T18:18:42.039Z,14.38
2018-02-04T18:21:08.695Z,13.52
2018-02-04T18:23:35.381Z,13.57
2018-02-04T18:26:02.139Z,15.88
2018-02-04T18:28:28.792Z,14.18
2018-02-04T18:30:55.459Z,18.65
2018-02-04T18:33:22.278Z,15.40
2018-02-04T18:35:49.049Z,18.62
2018-02-04T18:38:15.729Z,15.48
2018-02-04T18:40:42.447Z,16.20
2018-02-04T18:43:09.133Z,16.10
2018-02-04T18:45:35.804Z,14.57
2018-02-04T18:48:03.238Z,17.42
2018-02-04T18:50:29.950Z,13.20
2018-02-04T18:52:56.611Z,14.73
2018-02-04T18:55:24.611Z,15.15
2018-02-04T18:57:51.287Z,15.02
2018-02-04T19:00:17.966Z,13.13
2018-02-04T19:02:45.493Z,14.25
2018-02-04T19:05:12.988Z,14.10
2018-02-04T19:07:39.693Z,16.37
2018-02-04T19:10:06.404Z,14.80
2018-02-04T19:12:33.157Z,13.40
2018-02-04T19:14:59.819Z,13.90
2018-02-04T19:17:26.567Z,16.30
2018-02-04T19:19:53.192Z,13.40
2018-02-04T19:22:19.803Z,14.18
2018-02-04T19:24:46.433Z,14.68
2018-02-04T19:27:13.082Z,20.17
2018-02-04T19:29:39.780Z,19.02
2018-02-04T19:32:06.730Z,22.60
2018-02-04T19:34:34.132Z,16.90
2018-02-04T19:37:00.880Z,22.20
2018-02-04T19:39:27.480Z,25.45
2018-02-04T19:41:55.016Z,16.62
2018-02-04T19:44:21.674Z,23.20
2018-02-04T19:46:48.339Z,17.58
2018-02-04T19:49:15.375Z,19.15
2018-02-04T19:51:41.999Z,20.45
2018-02-04T19:54:08.627Z,19.55
2018-02-04T19:56:35.378Z,22.27
2018-02-04T19:59:02.897Z,17.85
2018-02-04T20:01:29.621Z,25.35
2018-02-04T20:03:56.246Z,17.50
2018-02-04T20:06:22.975Z,19.77
2018-02-04T20:08:49.587Z,31.42
2018-02-04T20:11:16.172Z,21.58
2018-02-04T20:13:42.804Z,21.98
2018-02-04T20:16:09.431Z,21.90
2018-02-04T20:18:36.086Z,36.35
2018-02-04T20:21:02.732Z,18.83
2018-02-04T20:23:29.386Z,37.15
2018-02-04T20:25:55.997Z,28.85
2018-02-04T20:28:22.604Z,21.58
2018-02-04T20:30:49.311Z,29.35
2018-02-04T20:33:22.051Z,43.55
2018-02-04T20:35:48.774Z,27.48
2018-02-04T20:38:15.480Z,25.73
2018-02-04T20:40:42.141Z,29.35
2018-02-04T20:43:08.786Z,17.95
2018-02-04T20:45:36.205Z,18.70
2018-02-04T20:48:03.646Z,23.23
2018-02-04T20:50:31.067Z,50.45
2018-02-04T20:52:57.719Z,98.03
2018-02-04T20:55:24.371Z,26.30
2018-02-04T20:57:51.069Z,76.60
2018-02-04T21:00:17.775Z,34.58
2018-02-04T21:02:44.443Z,29.65
2018-02-04T21:05:11.955Z,20.67
2018-02-04T21:07:39.083Z,18.58
2018-02-04T21:10:05.760Z,20.27
2018-02-04T21:12:32.478Z,20.15
2018-02-04T21:14:59.120Z,20.88
2018-02-04T21:17:25.807Z,20.83
2018-02-04T21:19:52.486Z,21.60
2018-02-04T21:22:19.943Z,20.55
2018-02-04T21:24:46.639Z,28.55
2018-02-04T21:27:14.022Z,26.10
2018-02-04T21:29:40.741Z,23.10
2018-02-04T21:32:07.338Z,21.02
2018-02-04T21:34:33.948Z,28.58
2018-02-04T21:37:01.575Z,23.12
2018-02-04T21:39:28.252Z,23.55
2018-02-04T21:41:54.890Z,23.48
2018-02-04T21:44:21.552Z,23.27
2018-02-04T21:46:48.243Z,24.33
2018-02-04T21:49:14.864Z,23.35
2018-02-04T21:51:41.595Z,24.25
2018-02-04T21:54:09.560Z,24.35
2018-02-04T21:56:36.189Z,25.12
2018-02-04T21:59:03.662Z,23.35
2018-02-04T22:01:30.269Z,27.27
2018-02-04T22:03:56.938Z,23.90
2018-02-04T22:06:24.327Z,26.33
2018-02-04T22:08:50.928Z,28.95
2018-02-04T22:11:17.579Z,28.30
2018-02-04T22:13:44.557Z,30.25
2018-02-04T22:16:11.172Z,29.58
2018-02-04T22:18:37.913Z,31.45
2018-02-04T22:21:04.546Z,32.80
2018-02-04T22:23:31.210Z,35.63
2018-02-04T22:25:57.905Z,31.40
2018-02-04T22:28:24.572Z,30.90
2018-02-04T22:30:51.266Z,29.75
2018-02-04T22:33:17.864Z,38.80
2018-02-04T22:35:44.673Z,43.65
2018-02-04T22:38:11.303Z,34.35
2018-02-04T22:40:37.885Z,28.95
2018-02-04T22:43:04.592Z,32.72
2018-02-04T22:45:31.320Z,31.40
2018-02-04T22:47:58.402Z,26.05
2018-02-04T22:50:25.799Z,32.78
2018-02-04T22:52:53.179Z,31.23
2018-02-04T22:55:19.846Z,36.25
2018-02-04T22:57:46.459Z,30.70
2018-02-04T23:00:13.074Z,29.67
2018-02-04T23:02:39.827Z,29.37
2018-02-04T23:05:06.502Z,29.73
2018-02-04T23:07:33.154Z,28.30
2018-02-04T23:09:59.757Z,30.37
2018-02-04T23:12:26.333Z,32.13
2018-02-04T23:14:52.926Z,29.10
2018-02-04T23:17:19.761Z,28.25
2018-02-04T23:19:46.441Z,33.85
2018-02-04T23:22:13.818Z,30.35
2018-02-04T23:24:41.214Z,35.95
2018-02-04T23:27:07.802Z,32.35
2018-02-04T23:29:34.392Z,33.20
2018-02-04T23:32:01.169Z,31.60
2018-02-04T23:34:27.746Z,32.33
2018-02-04T23:36:55.138Z,32.60
2018-02-04T23:39:21.994Z,36.42
2018-02-04T23:41:48.588Z,37.42
2018-02-04T23:44:15.182Z,34.58
2018-02-04T23:46:41.797Z,33.92
2018-02-04T23:49:08.401Z,37.60
2018-02-04T23:51:35.005Z,34.22
2018-02-04T23:54:01.614Z,41.58
2018-02-04T23:56:28.238Z,33.30
2018-02-04T23:58:54.801Z,33.30
